createdAt,value
2024-03-09T06:24:40.302Z,-0.52
2024-03-09T06:31:08.267Z,-0.34
2024-03-09T06:39:25.412Z,-0.17
2024-03-09T06:42:03.373Z,-0.07
2024-03-09T06:45:10.453Z,-0.18
2024-03-09T06:47:47.637Z,-0.21
2024-03-09T06:50:23.361Z,-0.04
2024-03-09T06:53:01.920Z,0.01
2024-03-09T06:55:35.816Z,0.02
2024-03-09T06:58:06.982Z,0.03
2024-03-09T07:00:49.559Z,0.16
2024-03-09T07:03:27.015Z,0.33
2024-03-09T07:06:07.582Z,0.33
2024-03-09T07:08:36.967Z,0.23
2024-03-09T07:11:09.622Z,0.06
2024-03-09T07:13:59.344Z,0.18
2024-03-09T07:16:51.228Z,0.47
2024-03-09T07:19:31.534Z,0.54
2024-03-09T07:22:04.228Z,0.63
2024-03-09T07:24:38.457Z,0.44
2024-03-09T07:27:22.106Z,0.33
2024-03-09T07:30:00.741Z,0.60
2024-03-09T07:32:39.559Z,0.62
2024-03-09T07:39:53.133Z,0.51
2024-03-09T07:42:51.513Z,0.91
2024-03-09T07:45:23.250Z,1.12
2024-03-09T07:47:54.428Z,1.31
2024-03-09T07:50:25.258Z,1.45
2024-03-09T07:52:58.121Z,1.42
2024-03-09T07:55:36.009Z,1.52
2024-03-09T07:58:14.398Z,1.61
2024-03-09T08:00:52.579Z,1.21
2024-03-09T08:03:24.541Z,1.05
2024-03-09T08:06:02.333Z,1.16
2024-03-09T08:08:30.956Z,1.33
2024-03-09T08:11:01.093Z,1.58
2024-03-09T08:13:39.471Z,2.07
2024-03-09T08:16:12.899Z,2.06
2024-03-09T08:18:46.319Z,2.19
2024-03-09T08:21:27.278Z,2.16
2024-03-09T08:23:59.674Z,2.23
2024-03-09T08:26:39.263Z,2.37
2024-03-09T08:29:19.667Z,2.64
2024-03-09T08:32:11.437Z,2.94
2024-03-09T08:34:45.374Z,2.71
2024-03-09T08:40:32.953Z,2.12
2024-03-09T09:04:16.518Z,3.22
2024-03-09T09:11:02.090Z,2.35
2024-03-09T09:14:38.814Z,2.58
2024-03-09T09:21:54.880Z,2.25
2024-03-09T09:35:41.377Z,1.93
2024-03-09T09:38:33.130Z,1.87
2024-03-09T09:41:47.527Z,1.82
2024-03-09T09:44:22.236Z,1.75
2024-03-09T09:47:26.262Z,1.76
2024-03-09T09:50:02.888Z,1.52
2024-03-09T09:52:38.010Z,1.42
2024-03-09T09:55:13.383Z,1.16
2024-03-09T09:57:54.110Z,1.09
2024-03-09T10:03:55.692Z,1.08
2024-03-09T10:06:35.749Z,1.14
2024-03-09T10:09:29.056Z,1.07
2024-03-09T10:12:25.359Z,1.23
2024-03-09T10:15:19.502Z,1.36
2024-03-09T10:18:00.200Z,1.38
2024-03-09T10:21:05.453Z,1.30
2024-03-09T10:23:56.057Z,1.23
2024-03-09T10:26:34.287Z,1.22
2024-03-09T10:35:40.838Z,1.57
2024-03-09T10:42:32.766Z,1.49
2024-03-09T10:48:42.151Z,1.60
2024-03-09T11:00:37.357Z,1.72
2024-03-09T11:03:27.321Z,1.75
2024-03-09T11:06:13.311Z,1.76
2024-03-09T11:09:03.534Z,1.79
2024-03-09T11:12:10.570Z,1.80
2024-03-09T11:15:30.843Z,1.55
2024-03-09T11:18:24.643Z,1.65
2024-03-09T11:26:57.495Z,1.78
2024-03-09T11:29:57.674Z,1.78
2024-03-09T11:32:37.997Z,1.85
2024-03-09T11:35:52.025Z,1.86
2024-03-09T11:38:43.792Z,1.93
2024-03-09T11:41:32.850Z,2.11
2024-03-09T11:44:20.111Z,2.13
2024-03-09T11:47:00.466Z,2.26
2024-03-09T11:50:14.386Z,2.21
2024-03-09T11:53:16.327Z,2.29
2024-03-09T11:56:48.928Z,2.49
2024-03-09T11:59:28.774Z,2.49
2024-03-09T12:05:17.349Z,2.47
2024-03-09T12:08:11.049Z,2.46
2024-03-09T12:13:35.666Z,2.40
2024-03-09T12:16:22.719Z,2.45
2024-03-09T12:19:07.257Z,2.44
2024-03-09T12:21:48.935Z,2.57
2024-03-09T12:24:34.154Z,2.53
2024-03-09T12:30:09.549Z,2.63
2024-03-09T12:32:53.970Z,2.68
2024-03-09T12:38:25.773Z,3.04
2024-03-09T12:41:11.459Z,2.88
2024-03-09T12:44:13.031Z,2.88
2024-03-09T12:47:32.854Z,2.97
2024-03-09T12:54:20.073Z,3.09
2024-03-09T12:59:57.723Z,3.18
2024-03-09T13:05:40.212Z,3.24
2024-03-09T13:08:18.539Z,3.22
2024-03-09T13:10:49.028Z,3.31
2024-03-09T13:13:39.542Z,3.24
2024-03-09T13:16:19.874Z,3.23
2024-03-09T13:18:52.264Z,3.01
2024-03-09T13:21:34.654Z,2.93
2024-03-09T13:24:43.059Z,3.06
2024-03-09T13:27:17.428Z,3.17
2024-03-09T13:29:49.798Z,2.78
2024-03-09T13:32:25.460Z,2.83
2024-03-09T13:35:12.046Z,2.90
2024-03-09T13:37:55.243Z,2.79
2024-03-09T13:40:27.465Z,2.79
2024-03-09T13:43:00.983Z,2.72
2024-03-09T13:45:35.510Z,2.53
2024-03-09T13:48:11.437Z,2.39
2024-03-09T13:50:42.538Z,2.24
2024-03-09T13:53:12.281Z,2.14
2024-03-09T13:55:41.474Z,2.28
2024-03-09T13:58:25.102Z,2.08
2024-03-09T14:01:03.121Z,2.26
2024-03-09T14:03:38.078Z,2.24
2024-03-09T14:06:19.050Z,2.30
2024-03-09T14:08:52.516Z,2.18
2024-03-09T14:11:32.817Z,2.18
2024-03-09T14:14:05.545Z,2.08
2024-03-09T14:16:36.235Z,2.05
2024-03-09T14:19:10.643Z,1.73
2024-03-09T14:21:48.182Z,1.78
2024-03-09T14:24:33.156Z,1.87
2024-03-09T14:27:02.479Z,1.76
2024-03-09T14:29:43.948Z,1.58
2024-03-09T14:32:19.707Z,1.52
2024-03-09T14:34:55.690Z,1.55
2024-03-09T14:37:32.834Z,1.55
2024-03-09T14:40:16.399Z,1.47
2024-03-09T14:42:50.266Z,1.51
2024-03-09T14:45:24.981Z,1.42
2024-03-09T14:48:01.859Z,1.49
2024-03-09T14:51:05.051Z,1.46
2024-03-09T14:56:36.481Z,1.30
2024-03-09T15:00:03.237Z,1.24
2024-03-09T15:02:45.023Z,1.20
2024-03-09T15:05:30.804Z,1.22
2024-03-09T15:08:34.855Z,1.24
2024-03-09T15:12:00.505Z,1.13
2024-03-09T15:18:12.141Z,0.99
2024-03-09T16:23:09.604Z,0.36
2024-03-09T16:26:15.018Z,0.36
2024-03-09T16:29:10.688Z,0.49
2024-03-09T16:31:52.254Z,0.50
2024-03-09T16:34:22.705Z,0.51
2024-03-09T16:36:53.141Z,0.53
2024-03-09T16:39:24.207Z,0.54
2024-03-09T16:41:54.433Z,0.55
2024-03-09T16:44:35.608Z,0.58
2024-03-09T16:47:09.165Z,0.62
2024-03-09T16:50:17.200Z,0.65
2024-03-09T17:06:56.163Z,0.51
2024-03-09T17:13:31.956Z,0.22
2024-03-09T17:16:20.680Z,0.07
2024-03-09T17:19:26.663Z,0.09
2024-03-09T17:22:32.292Z,0.05
2024-03-09T17:37:55.449Z,-0.40
2024-03-09T17:41:08.092Z,-0.27
2024-03-09T17:44:13.501Z,-0.25
2024-03-09T17:47:31.236Z,-0.45
2024-03-09T17:50:35.717Z,-0.75
2024-03-09T19:53:46.891Z,-1.16
2024-03-09T19:56:28.892Z,-1.24
2024-03-09T19:59:08.625Z,-1.31
2024-03-09T20:01:44.685Z,-1.23
2024-03-09T20:04:18.403Z,-1.35
2024-03-09T20:06:49.513Z,-1.47
2024-03-09T20:09:39.610Z,-1.47
2024-03-09T20:12:14.792Z,-1.55
2024-03-09T20:14:50.474Z,-1.51
2024-03-09T20:17:27.127Z,-1.59
2024-03-09T20:20:00.362Z,-1.57
2024-03-09T20:22:39.684Z,-1.66
2024-03-09T20:25:19.452Z,-1.78
2024-03-09T20:27:52.236Z,-1.77
2024-03-09T20:30:22.833Z,-1.58
2024-03-09T20:32:53.907Z,-1.51
2024-03-09T20:35:37.243Z,-1.56
2024-03-09T20:38:16.932Z,-1.69
2024-03-09T20:40:54.918Z,-1.92
2024-03-09T20:43:27.519Z,-2.07
2024-03-09T20:46:00.463Z,-2.09
2024-03-09T20:48:30.751Z,-2.20
2024-03-09T20:51:02.847Z,-2.23
2024-03-09T20:53:51.121Z,-2.15
2024-03-09T20:56:26.105Z,-2.25
2024-03-09T20:59:01.322Z,-2.24
2024-03-09T21:01:57.409Z,-2.25
2024-03-09T21:07:19.874Z,-2.22
2024-03-09T21:09:54.726Z,-2.16
2024-03-09T21:12:33.065Z,-2.26
2024-03-09T21:15:29.714Z,-2.46
2024-03-09T21:18:34.405Z,-2.51
2024-03-09T21:21:17.793Z,-2.40
2024-03-09T21:27:11.970Z,-2.47
2024-03-09T21:34:12.243Z,-2.34
2024-03-09T21:37:12.883Z,-2.42
